sensor_id;sensor_type;location;lat;lon;timestamp;temperature;humidity
13796;SHT30;40911;51.552;9.874;2023-08-06T00:02:21;16.02;91.45
13796;SHT30;40911;51.552;9.874;2023-08-06T00:04:43;16.26;90.50
13796;SHT30;40911;51.552;9.874;2023-08-06T00:07:05;15.92;91.46
13796;SHT30;40911;51.552;9.874;2023-08-06T00:09:26;15.80;91.79
13796;SHT30;40911;51.552;9.874;2023-08-06T00:11:48;16.32;90.04
13796;SHT30;40911;51.552;9.874;2023-08-06T00:14:09;16.12;90.60
13796;SHT30;40911;51.552;9.874;2023-08-06T00:16:31;16.28;89.71
13796;SHT30;40911;51.552;9.874;2023-08-06T00:18:54;16.15;89.84
13796;SHT30;40911;51.552;9.874;2023-08-06T00:21:15;16.35;89.44
13796;SHT30;40911;51.552;9.874;2023-08-06T00:23:37;16.49;88.85
13796;SHT30;40911;51.552;9.874;2023-08-06T00:25:59;16.49;89.00
13796;SHT30;40911;51.552;9.874;2023-08-06T00:28:20;16.42;89.18
13796;SHT30;40911;51.552;9.874;2023-08-06T00:30:42;16.07;91.03
13796;SHT30;40911;51.552;9.874;2023-08-06T00:33:03;16.43;89.59
13796;SHT30;40911;51.552;9.874;2023-08-06T00:35:26;16.46;89.41
13796;SHT30;40911;51.552;9.874;2023-08-06T00:37:48;16.15;90.64
13796;SHT30;40911;51.552;9.874;2023-08-06T00:40:09;16.46;89.31
13796;SHT30;40911;51.552;9.874;2023-08-06T00:42:31;16.36;89.50
13796;SHT30;40911;51.552;9.874;2023-08-06T00:44:52;16.39;89.55
13796;SHT30;40911;51.552;9.874;2023-08-06T00:47:14;16.42;89.41
13796;SHT30;40911;51.552;9.874;2023-08-06T00:49:36;16.57;88.87
13796;SHT30;40911;51.552;9.874;2023-08-06T00:51:59;16.29;89.95
13796;SHT30;40911;51.552;9.874;2023-08-06T00:54:21;16.08;90.90
13796;SHT30;40911;51.552;9.874;2023-08-06T00:56:44;16.11;90.60
13796;SHT30;40911;51.552;9.874;2023-08-06T00:59:06;16.12;90.83
13796;SHT30;40911;51.552;9.874;2023-08-06T01:01:27;15.85;91.58
13796;SHT30;40911;51.552;9.874;2023-08-06T01:03:49;15.92;91.23
13796;SHT30;40911;51.552;9.874;2023-08-06T01:06:11;16.19;90.32
13796;SHT30;40911;51.552;9.874;2023-08-06T01:08:36;16.22;89.98
13796;SHT30;40911;51.552;9.874;2023-08-06T01:11:17;16.15;90.38
13796;SHT30;40911;51.552;9.874;2023-08-06T01:13:43;15.84;91.64
13796;SHT30;40911;51.552;9.874;2023-08-06T01:16:07;15.77;92.01
13796;SHT30;40911;51.552;9.874;2023-08-06T01:18:30;16.05;90.90
13796;SHT30;40911;51.552;9.874;2023-08-06T01:20:53;15.95;91.62
13796;SHT30;40911;51.552;9.874;2023-08-06T01:23:15;15.81;91.80
13796;SHT30;40911;51.552;9.874;2023-08-06T01:25:38;15.78;91.96
13796;SHT30;40911;51.552;9.874;2023-08-06T01:28:06;16.09;91.05
13796;SHT30;40911;51.552;9.874;2023-08-06T01:30:33;16.11;90.76
13796;SHT30;40911;51.552;9.874;2023-08-06T01:32:58;15.82;91.72
13796;SHT30;40911;51.552;9.874;2023-08-06T01:35:21;16.09;90.78
13796;SHT30;40911;51.552;9.874;2023-08-06T01:37:45;16.09;90.75
13796;SHT30;40911;51.552;9.874;2023-08-06T01:40:10;16.17;90.39
13796;SHT30;40911;51.552;9.874;2023-08-06T01:42:32;16.15;90.37
13796;SHT30;40911;51.552;9.874;2023-08-06T01:44:53;16.19;90.23
13796;SHT30;40911;51.552;9.874;2023-08-06T01:47:15;16.18;90.12
13796;SHT30;40911;51.552;9.874;2023-08-06T01:49:36;16.15;90.11
13796;SHT30;40911;51.552;9.874;2023-08-06T01:51:58;16.33;89.70
13796;SHT30;40911;51.552;9.874;2023-08-06T01:54:22;16.02;90.44
13796;SHT30;40911;51.552;9.874;2023-08-06T01:56:44;15.80;91.35
13796;SHT30;40911;51.552;9.874;2023-08-06T01:59:05;15.90;91.22
13796;SHT30;40911;51.552;9.874;2023-08-06T02:01:27;15.92;90.71
13796;SHT30;40911;51.552;9.874;2023-08-06T02:03:48;15.90;90.93
13796;SHT30;40911;51.552;9.874;2023-08-06T02:06:10;15.82;90.92
13796;SHT30;40911;51.552;9.874;2023-08-06T02:08:32;15.73;91.54
13796;SHT30;40911;51.552;9.874;2023-08-06T02:10:54;15.91;90.58
13796;SHT30;40911;51.552;9.874;2023-08-06T02:13:16;15.84;90.77
13796;SHT30;40911;51.552;9.874;2023-08-06T02:15:41;15.39;92.44
13796;SHT30;40911;51.552;9.874;2023-08-06T02:18:03;15.25;92.89
13796;SHT30;40911;51.552;9.874;2023-08-06T02:20:24;15.28;92.87
13796;SHT30;40911;51.552;9.874;2023-08-06T02:22:46;15.09;93.71
13796;SHT30;40911;51.552;9.874;2023-08-06T02:25:08;15.61;92.13
13796;SHT30;40911;51.552;9.874;2023-08-06T02:27:31;15.44;92.37
13796;SHT30;40911;51.552;9.874;2023-08-06T02:29:52;15.54;92.44
13796;SHT30;40911;51.552;9.874;2023-08-06T02:32:14;15.81;91.32
13796;SHT30;40911;51.552;9.874;2023-08-06T02:34:35;15.54;92.19
13796;SHT30;40911;51.552;9.874;2023-08-06T02:36:57;15.67;91.84
13796;SHT30;40911;51.552;9.874;2023-08-06T02:39:19;15.87;91.03
13796;SHT30;40911;51.552;9.874;2023-08-06T02:41:40;15.84;91.34
13796;SHT30;40911;51.552;9.874;2023-08-06T02:44:03;15.95;90.68
13796;SHT30;40911;51.552;9.874;2023-08-06T02:46:25;15.71;91.72
13796;SHT30;40911;51.552;9.874;2023-08-06T02:48:47;15.82;91.13
13796;SHT30;40911;51.552;9.874;2023-08-06T02:51:08;15.71;91.53
13796;SHT30;40911;51.552;9.874;2023-08-06T02:53:30;15.60;92.12
13796;SHT30;40911;51.552;9.874;2023-08-06T02:55:52;15.26;93.23
13796;SHT30;40911;51.552;9.874;2023-08-06T02:58:12;15.43;92.87
13796;SHT30;40911;51.552;9.874;2023-08-06T03:00:35;15.57;92.25
13796;SHT30;40911;51.552;9.874;2023-08-06T03:02:57;15.53;92.29
13796;SHT30;40911;51.552;9.874;2023-08-06T03:05:18;15.60;91.65
13796;SHT30;40911;51.552;9.874;2023-08-06T03:07:40;15.69;91.31
13796;SHT30;40911;51.552;9.874;2023-08-06T03:10:02;15.73;91.14
13796;SHT30;40911;51.552;9.874;2023-08-06T03:12:23;15.60;91.55
13796;SHT30;40911;51.552;9.874;2023-08-06T03:14:45;15.70;91.31
13796;SHT30;40911;51.552;9.874;2023-08-06T03:17:08;15.73;90.99
13796;SHT30;40911;51.552;9.874;2023-08-06T03:19:29;15.70;90.90
13796;SHT30;40911;51.552;9.874;2023-08-06T03:21:51;15.66;91.15
13796;SHT30;40911;51.552;9.874;2023-08-06T03:24:13;15.60;90.88
13796;SHT30;40911;51.552;9.874;2023-08-06T03:26:35;15.38;92.22
13796;SHT30;40911;51.552;9.874;2023-08-06T03:28:56;15.38;91.92
13796;SHT30;40911;51.552;9.874;2023-08-06T03:31:18;14.88;93.92
13796;SHT30;40911;51.552;9.874;2023-08-06T03:33:40;14.92;93.98
13796;SHT30;40911;51.552;9.874;2023-08-06T03:36:02;15.11;93.46
13796;SHT30;40911;51.552;9.874;2023-08-06T03:38:24;15.20;92.73
13796;SHT30;40911;51.552;9.874;2023-08-06T03:40:46;14.96;93.55
13796;SHT30;40911;51.552;9.874;2023-08-06T03:43:07;15.09;93.06
13796;SHT30;40911;51.552;9.874;2023-08-06T03:45:29;15.16;92.86
13796;SHT30;40911;51.552;9.874;2023-08-06T03:47:50;15.06;92.74
13796;SHT30;40911;51.552;9.874;2023-08-06T03:50:14;14.84;93.90
13796;SHT30;40911;51.552;9.874;2023-08-06T03:52:35;14.94;93.33
13796;SHT30;40911;51.552;9.874;2023-08-06T03:54:57;14.92;93.78
13796;SHT30;40911;51.552;9.874;2023-08-06T03:57:18;14.85;93.38
13796;SHT30;40911;51.552;9.874;2023-08-06T03:59:40;14.80;93.85
13796;SHT30;40911;51.552;9.874;2023-08-06T04:02:02;14.99;93.00
13796;SHT30;40911;51.552;9.874;2023-08-06T04:04:23;15.05;92.38
13796;SHT30;40911;51.552;9.874;2023-08-06T04:06:46;15.09;91.93
13796;SHT30;40911;51.552;9.874;2023-08-06T04:09:08;15.28;91.38
13796;SHT30;40911;51.552;9.874;2023-08-06T04:11:29;15.28;91.28
13796;SHT30;40911;51.552;9.874;2023-08-06T04:13:51;15.15;91.83
13796;SHT30;40911;51.552;9.874;2023-08-06T04:16:14;15.15;91.61
13796;SHT30;40911;51.552;9.874;2023-08-06T04:18:36;15.16;91.46
13796;SHT30;40911;51.552;9.874;2023-08-06T04:20:57;15.16;91.72
13796;SHT30;40911;51.552;9.874;2023-08-06T04:23:20;15.22;91.34
13796;SHT30;40911;51.552;9.874;2023-08-06T04:25:42;15.20;91.27
13796;SHT30;40911;51.552;9.874;2023-08-06T04:28:04;15.18;91.12
13796;SHT30;40911;51.552;9.874;2023-08-06T04:30:25;15.11;91.47
13796;SHT30;40911;51.552;9.874;2023-08-06T04:32:49;15.12;91.56
13796;SHT30;40911;51.552;9.874;2023-08-06T04:35:11;15.13;91.20
13796;SHT30;40911;51.552;9.874;2023-08-06T04:37:32;14.91;92.06
13796;SHT30;40911;51.552;9.874;2023-08-06T04:39:55;14.59;93.58
13796;SHT30;40911;51.552;9.874;2023-08-06T04:42:17;14.78;92.91
13796;SHT30;40911;51.552;9.874;2023-08-06T04:44:38;14.81;92.39
13796;SHT30;40911;51.552;9.874;2023-08-06T04:47:00;14.50;93.99
13796;SHT30;40911;51.552;9.874;2023-08-06T04:49:21;14.37;94.14
13796;SHT30;40911;51.552;9.874;2023-08-06T04:51:43;14.34;94.68
13796;SHT30;40911;51.552;9.874;2023-08-06T04:54:04;14.26;94.70
13796;SHT30;40911;51.552;9.874;2023-08-06T04:56:27;14.59;93.60
13796;SHT30;40911;51.552;9.874;2023-08-06T04:58:50;14.64;93.48
13796;SHT30;40911;51.552;9.874;2023-08-06T05:01:11;14.98;92.25
13796;SHT30;40911;51.552;9.874;2023-08-06T05:03:33;14.60;93.03
13796;SHT30;40911;51.552;9.874;2023-08-06T05:05:54;14.75;93.00
13796;SHT30;40911;51.552;9.874;2023-08-06T05:08:16;14.54;93.46
13796;SHT30;40911;51.552;9.874;2023-08-06T05:10:42;14.67;93.47
13796;SHT30;40911;51.552;9.874;2023-08-06T05:13:05;14.87;92.59
13796;SHT30;40911;51.552;9.874;2023-08-06T05:15:26;14.71;93.18
13796;SHT30;40911;51.552;9.874;2023-08-06T05:17:48;15.08;91.95
13796;SHT30;40911;51.552;9.874;2023-08-06T05:20:11;15.20;91.31
13796;SHT30;40911;51.552;9.874;2023-08-06T05:22:33;14.99;92.26
13796;SHT30;40911;51.552;9.874;2023-08-06T05:24:54;15.16;91.86
13796;SHT30;40911;51.552;9.874;2023-08-06T05:27:16;15.35;91.43
13796;SHT30;40911;51.552;9.874;2023-08-06T05:29:40;15.32;91.21
13796;SHT30;40911;51.552;9.874;2023-08-06T05:32:02;15.49;90.85
13796;SHT30;40911;51.552;9.874;2023-08-06T05:34:24;15.47;91.10
13796;SHT30;40911;51.552;9.874;2023-08-06T05:36:45;15.40;91.79
13796;SHT30;40911;51.552;9.874;2023-08-06T05:39:07;15.56;91.48
13796;SHT30;40911;51.552;9.874;2023-08-06T05:41:28;15.74;90.71
13796;SHT30;40911;51.552;9.874;2023-08-06T05:43:50;15.94;90.27
13796;SHT30;40911;51.552;9.874;2023-08-06T05:46:13;16.17;89.71
13796;SHT30;40911;51.552;9.874;2023-08-06T05:48:35;16.04;89.62
13796;SHT30;40911;51.552;9.874;2023-08-06T05:50:56;16.25;89.53
13796;SHT30;40911;51.552;9.874;2023-08-06T05:53:18;16.35;89.58
13796;SHT30;40911;51.552;9.874;2023-08-06T05:55:40;16.56;88.85
13796;SHT30;40911;51.552;9.874;2023-08-06T05:58:02;16.67;88.40
13796;SHT30;40911;51.552;9.874;2023-08-06T06:00:23;16.66;88.51
13796;SHT30;40911;51.552;9.874;2023-08-06T06:02:47;16.55;88.86
13796;SHT30;40911;51.552;9.874;2023-08-06T06:05:08;16.73;88.15
13796;SHT30;40911;51.552;9.874;2023-08-06T06:07:30;16.97;87.51
13796;SHT30;40911;51.552;9.874;2023-08-06T06:09:51;16.81;87.16
13796;SHT30;40911;51.552;9.874;2023-08-06T06:12:13;16.91;87.43
13796;SHT30;40911;51.552;9.874;2023-08-06T06:14:34;17.04;87.15
13796;SHT30;40911;51.552;9.874;2023-08-06T06:16:56;17.16;86.32
13796;SHT30;40911;51.552;9.874;2023-08-06T06:19:19;17.31;86.66
13796;SHT30;40911;51.552;9.874;2023-08-06T06:21:41;17.45;85.92
13796;SHT30;40911;51.552;9.874;2023-08-06T06:24:03;17.56;85.73
13796;SHT30;40911;51.552;9.874;2023-08-06T06:26:25;17.62;84.87
13796;SHT30;40911;51.552;9.874;2023-08-06T06:28:46;17.83;85.13
13796;SHT30;40911;51.552;9.874;2023-08-06T06:31:08;17.87;85.17
13796;SHT30;40911;51.552;9.874;2023-08-06T06:33:30;17.98;84.89
13796;SHT30;40911;51.552;9.874;2023-08-06T06:35:53;18.00;84.51
13796;SHT30;40911;51.552;9.874;2023-08-06T06:38:14;18.02;83.99
13796;SHT30;40911;51.552;9.874;2023-08-06T06:40:36;17.76;84.47
13796;SHT30;40911;51.552;9.874;2023-08-06T06:42:58;17.86;84.54
13796;SHT30;40911;51.552;9.874;2023-08-06T06:45:19;17.96;85.06
13796;SHT30;40911;51.552;9.874;2023-08-06T06:47:41;18.36;83.29
13796;SHT30;40911;51.552;9.874;2023-08-06T06:50:03;18.53;83.30
13796;SHT30;40911;51.552;9.874;2023-08-06T06:52:26;18.62;82.35
13796;SHT30;40911;51.552;9.874;2023-08-06T06:54:47;18.90;82.78
13796;SHT30;40911;51.552;9.874;2023-08-06T06:57:09;18.88;82.28
13796;SHT30;40911;51.552;9.874;2023-08-06T06:59:31;18.69;81.85
13796;SHT30;40911;51.552;9.874;2023-08-06T07:01:52;18.51;83.62
13796;SHT30;40911;51.552;9.874;2023-08-06T07:04:14;18.86;82.30
13796;SHT30;40911;51.552;9.874;2023-08-06T07:06:35;18.93;80.22
13796;SHT30;40911;51.552;9.874;2023-08-06T07:08:58;18.97;81.53
13796;SHT30;40911;51.552;9.874;2023-08-06T07:11:20;18.98;81.95
13796;SHT30;40911;51.552;9.874;2023-08-06T07:13:42;18.51;82.61
13796;SHT30;40911;51.552;9.874;2023-08-06T07:16:03;19.27;80.73
13796;SHT30;40911;51.552;9.874;2023-08-06T07:18:25;19.30;80.91
13796;SHT30;40911;51.552;9.874;2023-08-06T07:20:48;19.59;81.13
13796;SHT30;40911;51.552;9.874;2023-08-06T07:23:10;19.87;80.41
13796;SHT30;40911;51.552;9.874;2023-08-06T07:25:33;19.97;79.21
13796;SHT30;40911;51.552;9.874;2023-08-06T07:27:54;20.44;79.74
13796;SHT30;40911;51.552;9.874;2023-08-06T07:30:17;19.30;80.37
13796;SHT30;40911;51.552;9.874;2023-08-06T07:32:38;19.73;79.09
13796;SHT30;40911;51.552;9.874;2023-08-06T07:35:00;19.70;79.23
13796;SHT30;40911;51.552;9.874;2023-08-06T07:37:23;19.62;78.56
13796;SHT30;40911;51.552;9.874;2023-08-06T07:39:44;20.10;79.32
13796;SHT30;40911;51.552;9.874;2023-08-06T07:42:07;19.99;79.07
13796;SHT30;40911;51.552;9.874;2023-08-06T07:44:29;20.60;79.42
13796;SHT30;40911;51.552;9.874;2023-08-06T07:46:51;20.21;77.88
13796;SHT30;40911;51.552;9.874;2023-08-06T07:49:12;21.03;76.72
13796;SHT30;40911;51.552;9.874;2023-08-06T07:51:34;20.72;76.72
13796;SHT30;40911;51.552;9.874;2023-08-06T07:53:56;20.60;76.55
13796;SHT30;40911;51.552;9.874;2023-08-06T07:56:17;20.60;79.83
13796;SHT30;40911;51.552;9.874;2023-08-06T07:58:40;21.76;75.67
13796;SHT30;40911;51.552;9.874;2023-08-06T08:01:02;21.37;76.40
13796;SHT30;40911;51.552;9.874;2023-08-06T08:03:24;21.37;75.00
13796;SHT30;40911;51.552;9.874;2023-08-06T08:05:45;20.71;74.71
13796;SHT30;40911;51.552;9.874;2023-08-06T08:08:07;21.10;75.19
13796;SHT30;40911;51.552;9.874;2023-08-06T08:10:30;21.31;76.84
13796;SHT30;40911;51.552;9.874;2023-08-06T08:12:52;21.42;75.06
13796;SHT30;40911;51.552;9.874;2023-08-06T08:15:15;20.63;76.32
13796;SHT30;40911;51.552;9.874;2023-08-06T08:17:38;21.23;75.73
13796;SHT30;40911;51.552;9.874;2023-08-06T08:19:59;21.59;75.92
13796;SHT30;40911;51.552;9.874;2023-08-06T08:22:21;21.21;74.09
13796;SHT30;40911;51.552;9.874;2023-08-06T08:24:43;20.99;73.54
13796;SHT30;40911;51.552;9.874;2023-08-06T08:27:05;21.61;72.49
13796;SHT30;40911;51.552;9.874;2023-08-06T08:29:27;22.13;72.65
13796;SHT30;40911;51.552;9.874;2023-08-06T08:31:50;22.38;72.18
13796;SHT30;40911;51.552;9.874;2023-08-06T08:34:12;22.02;72.54
13796;SHT30;40911;51.552;9.874;2023-08-06T08:36:34;21.33;74.49
13796;SHT30;40911;51.552;9.874;2023-08-06T08:38:56;21.40;72.97
13796;SHT30;40911;51.552;9.874;2023-08-06T08:41:17;20.65;73.67
13796;SHT30;40911;51.552;9.874;2023-08-06T08:43:40;21.23;72.22
13796;SHT30;40911;51.552;9.874;2023-08-06T08:46:04;21.06;73.91
13796;SHT30;40911;51.552;9.874;2023-08-06T08:48:28;21.11;74.42
13796;SHT30;40911;51.552;9.874;2023-08-06T08:50:50;20.72;74.85
13796;SHT30;40911;51.552;9.874;2023-08-06T08:53:13;20.77;74.80
13796;SHT30;40911;51.552;9.874;2023-08-06T08:55:35;20.44;75.05
13796;SHT30;40911;51.552;9.874;2023-08-06T08:57:58;20.65;75.02
13796;SHT30;40911;51.552;9.874;2023-08-06T09:00:20;19.80;75.87
13796;SHT30;40911;51.552;9.874;2023-08-06T09:02:42;19.69;76.84
13796;SHT30;40911;51.552;9.874;2023-08-06T09:05:09;19.61;78.30
13796;SHT30;40911;51.552;9.874;2023-08-06T09:07:34;19.07;80.08
13796;SHT30;40911;51.552;9.874;2023-08-06T09:09:57;18.93;80.00
13796;SHT30;40911;51.552;9.874;2023-08-06T09:12:19;18.93;79.70
13796;SHT30;40911;51.552;9.874;2023-08-06T09:14:41;19.11;79.57
13796;SHT30;40911;51.552;9.874;2023-08-06T09:17:03;19.08;79.24
13796;SHT30;40911;51.552;9.874;2023-08-06T09:19:26;19.51;79.14
13796;SHT30;40911;51.552;9.874;2023-08-06T09:21:51;19.70;77.65
13796;SHT30;40911;51.552;9.874;2023-08-06T09:24:13;19.77;77.96
13796;SHT30;40911;51.552;9.874;2023-08-06T09:26:34;19.94;76.75
13796;SHT30;40911;51.552;9.874;2023-08-06T09:28:56;19.80;77.38
13796;SHT30;40911;51.552;9.874;2023-08-06T09:31:21;20.06;77.21
13796;SHT30;40911;51.552;9.874;2023-08-06T09:33:42;20.16;76.22
13796;SHT30;40911;51.552;9.874;2023-08-06T09:36:08;20.38;76.26
13796;SHT30;40911;51.552;9.874;2023-08-06T09:38:37;21.21;75.38
13796;SHT30;40911;51.552;9.874;2023-08-06T09:40:59;22.12;71.05
13796;SHT30;40911;51.552;9.874;2023-08-06T09:43:22;22.48;69.87
13796;SHT30;40911;51.552;9.874;2023-08-06T09:45:44;22.24;68.81
13796;SHT30;40911;51.552;9.874;2023-08-06T09:48:07;21.63;69.32
13796;SHT30;40911;51.552;9.874;2023-08-06T09:50:30;21.75;69.68
13796;SHT30;40911;51.552;9.874;2023-08-06T09:52:52;21.75;69.86
13796;SHT30;40911;51.552;9.874;2023-08-06T09:55:16;21.52;70.88
13796;SHT30;40911;51.552;9.874;2023-08-06T09:57:37;21.38;70.98
13796;SHT30;40911;51.552;9.874;2023-08-06T10:00:00;21.57;72.40
13796;SHT30;40911;51.552;9.874;2023-08-06T10:02:24;21.88;72.44
13796;SHT30;40911;51.552;9.874;2023-08-06T10:04:47;21.45;70.75
13796;SHT30;40911;51.552;9.874;2023-08-06T10:07:09;21.44;70.42
13796;SHT30;40911;51.552;9.874;2023-08-06T10:09:32;22.64;69.81
13796;SHT30;40911;51.552;9.874;2023-08-06T10:11:56;22.76;68.51
13796;SHT30;40911;51.552;9.874;2023-08-06T10:14:23;22.51;69.53
13796;SHT30;40911;51.552;9.874;2023-08-06T10:16:47;22.03;69.95
13796;SHT30;40911;51.552;9.874;2023-08-06T10:19:10;21.78;69.82
13796;SHT30;40911;51.552;9.874;2023-08-06T10:21:32;22.08;69.25
13796;SHT30;40911;51.552;9.874;2023-08-06T10:23:54;23.06;67.64
13796;SHT30;40911;51.552;9.874;2023-08-06T10:26:16;23.58;67.25
13796;SHT30;40911;51.552;9.874;2023-08-06T10:28:39;24.22;67.28
13796;SHT30;40911;51.552;9.874;2023-08-06T10:31:01;23.68;65.39
13796;SHT30;40911;51.552;9.874;2023-08-06T10:33:40;23.00;64.52
13796;SHT30;40911;51.552;9.874;2023-08-06T10:36:02;22.51;67.10
13796;SHT30;40911;51.552;9.874;2023-08-06T10:38:27;21.96;68.43
13796;SHT30;40911;51.552;9.874;2023-08-06T10:41:01;21.99;69.52
13796;SHT30;40911;51.552;9.874;2023-08-06T10:43:27;21.81;70.18
13796;SHT30;40911;51.552;9.874;2023-08-06T10:45:51;21.98;68.44
13796;SHT30;40911;51.552;9.874;2023-08-06T10:48:28;22.12;67.64
13796;SHT30;40911;51.552;9.874;2023-08-06T10:50:50;23.15;65.49
13796;SHT30;40911;51.552;9.874;2023-08-06T10:53:12;23.51;65.15
13796;SHT30;40911;51.552;9.874;2023-08-06T10:55:34;24.50;62.96
13796;SHT30;40911;51.552;9.874;2023-08-06T10:58:04;23.92;63.31
13796;SHT30;40911;51.552;9.874;2023-08-06T11:00:26;23.78;63.15
13796;SHT30;40911;51.552;9.874;2023-08-06T11:02:50;24.42;61.90
13796;SHT30;40911;51.552;9.874;2023-08-06T11:05:12;24.98;63.88
13796;SHT30;40911;51.552;9.874;2023-08-06T11:07:34;24.90;61.08
13796;SHT30;40911;51.552;9.874;2023-08-06T11:10:01;25.73;62.23
13796;SHT30;40911;51.552;9.874;2023-08-06T11:12:23;25.29;61.14
13796;SHT30;40911;51.552;9.874;2023-08-06T11:14:49;25.87;59.99
13796;SHT30;40911;51.552;9.874;2023-08-06T11:17:11;26.57;58.61
13796;SHT30;40911;51.552;9.874;2023-08-06T11:19:34;25.71;59.23
13796;SHT30;40911;51.552;9.874;2023-08-06T11:21:56;25.08;58.03
13796;SHT30;40911;51.552;9.874;2023-08-06T11:24:18;25.33;59.61
13796;SHT30;40911;51.552;9.874;2023-08-06T11:26:40;25.66;59.47
13796;SHT30;40911;51.552;9.874;2023-08-06T11:29:03;25.10;59.49
13796;SHT30;40911;51.552;9.874;2023-08-06T11:31:24;25.23;58.65
13796;SHT30;40911;51.552;9.874;2023-08-06T11:33:46;25.98;57.14
13796;SHT30;40911;51.552;9.874;2023-08-06T11:36:10;26.04;56.99
13796;SHT30;40911;51.552;9.874;2023-08-06T11:38:32;25.90;56.58
13796;SHT30;40911;51.552;9.874;2023-08-06T11:40:54;26.20;57.00
13796;SHT30;40911;51.552;9.874;2023-08-06T11:43:17;25.42;58.95
13796;SHT30;40911;51.552;9.874;2023-08-06T11:45:41;26.48;60.53
13796;SHT30;40911;51.552;9.874;2023-08-06T11:48:03;27.45;59.55
13796;SHT30;40911;51.552;9.874;2023-08-06T11:50:26;26.41;59.25
13796;SHT30;40911;51.552;9.874;2023-08-06T11:52:53;26.04;58.70
13796;SHT30;40911;51.552;9.874;2023-08-06T11:55:16;26.66;59.88
13796;SHT30;40911;51.552;9.874;2023-08-06T11:57:39;26.36;59.72
13796;SHT30;40911;51.552;9.874;2023-08-06T12:00:02;25.90;60.22
13796;SHT30;40911;51.552;9.874;2023-08-06T12:02:24;26.14;60.83
13796;SHT30;40911;51.552;9.874;2023-08-06T12:05:00;26.69;60.03
13796;SHT30;40911;51.552;9.874;2023-08-06T12:07:26;25.91;59.65
13796;SHT30;40911;51.552;9.874;2023-08-06T12:09:49;25.25;60.46
13796;SHT30;40911;51.552;9.874;2023-08-06T12:12:11;24.84;61.32
13796;SHT30;40911;51.552;9.874;2023-08-06T12:14:36;25.42;60.78
13796;SHT30;40911;51.552;9.874;2023-08-06T12:16:57;25.01;60.18
13796;SHT30;40911;51.552;9.874;2023-08-06T12:19:20;24.53;61.17
13796;SHT30;40911;51.552;9.874;2023-08-06T12:21:43;24.42;61.01
13796;SHT30;40911;51.552;9.874;2023-08-06T12:24:05;23.87;61.71
13796;SHT30;40911;51.552;9.874;2023-08-06T12:26:29;25.28;60.60
13796;SHT30;40911;51.552;9.874;2023-08-06T12:28:51;25.42;58.85
13796;SHT30;40911;51.552;9.874;2023-08-06T12:31:15;25.16;61.37
13796;SHT30;40911;51.552;9.874;2023-08-06T12:33:37;26.29;58.15
13796;SHT30;40911;51.552;9.874;2023-08-06T12:35:58;26.69;58.03
13796;SHT30;40911;51.552;9.874;2023-08-06T12:38:20;26.04;57.51
13796;SHT30;40911;51.552;9.874;2023-08-06T12:40:42;26.02;56.43
13796;SHT30;40911;51.552;9.874;2023-08-06T12:43:05;27.08;55.93
13796;SHT30;40911;51.552;9.874;2023-08-06T12:45:26;26.36;56.48
13796;SHT30;40911;51.552;9.874;2023-08-06T12:47:48;26.97;55.34
13796;SHT30;40911;51.552;9.874;2023-08-06T12:50:10;26.92;55.44
13796;SHT30;40911;51.552;9.874;2023-08-06T12:52:31;27.35;54.83
13796;SHT30;40911;51.552;9.874;2023-08-06T12:54:53;27.34;57.86
13796;SHT30;40911;51.552;9.874;2023-08-06T12:57:15;27.80;54.84
13796;SHT30;40911;51.552;9.874;2023-08-06T12:59:40;27.75;55.23
13796;SHT30;40911;51.552;9.874;2023-08-06T13:02:02;28.10;54.94
13796;SHT30;40911;51.552;9.874;2023-08-06T13:04:24;26.94;55.56
13796;SHT30;40911;51.552;9.874;2023-08-06T13:06:45;26.93;55.56
13796;SHT30;40911;51.552;9.874;2023-08-06T13:09:07;26.51;55.92
13796;SHT30;40911;51.552;9.874;2023-08-06T13:11:29;25.88;58.37
13796;SHT30;40911;51.552;9.874;2023-08-06T13:13:51;25.01;60.55
13796;SHT30;40911;51.552;9.874;2023-08-06T13:16:14;24.97;60.70
13796;SHT30;40911;51.552;9.874;2023-08-06T13:18:36;24.02;61.16
13796;SHT30;40911;51.552;9.874;2023-08-06T13:20:58;23.37;63.10
13796;SHT30;40911;51.552;9.874;2023-08-06T13:23:20;23.92;62.87
13796;SHT30;40911;51.552;9.874;2023-08-06T13:25:41;23.81;64.21
13796;SHT30;40911;51.552;9.874;2023-08-06T13:28:03;23.11;65.82
13796;SHT30;40911;51.552;9.874;2023-08-06T13:30:25;23.18;65.51
13796;SHT30;40911;51.552;9.874;2023-08-06T13:32:48;22.68;66.99
13796;SHT30;40911;51.552;9.874;2023-08-06T13:35:10;22.33;67.12
13796;SHT30;40911;51.552;9.874;2023-08-06T13:37:31;22.45;69.17
13796;SHT30;40911;51.552;9.874;2023-08-06T13:39:53;21.81;72.92
13796;SHT30;40911;51.552;9.874;2023-08-06T13:42:15;21.41;77.13
13796;SHT30;40911;51.552;9.874;2023-08-06T13:44:36;20.62;80.99
13796;SHT30;40911;51.552;9.874;2023-08-06T13:46:58;20.66;80.78
13796;SHT30;40911;51.552;9.874;2023-08-06T13:49:21;20.52;81.27
13796;SHT30;40911;51.552;9.874;2023-08-06T13:51:43;20.11;84.01
13796;SHT30;40911;51.552;9.874;2023-08-06T13:54:04;20.22;82.81
13796;SHT30;40911;51.552;9.874;2023-08-06T13:56:26;20.07;82.74
13796;SHT30;40911;51.552;9.874;2023-08-06T13:58:49;19.67;84.69
13796;SHT30;40911;51.552;9.874;2023-08-06T14:01:13;19.36;86.95
13796;SHT30;40911;51.552;9.874;2023-08-06T14:03:34;18.70;88.13
13796;SHT30;40911;51.552;9.874;2023-08-06T14:05:57;18.80;87.89
13796;SHT30;40911;51.552;9.874;2023-08-06T14:08:19;18.12;89.71
13796;SHT30;40911;51.552;9.874;2023-08-06T14:10:41;18.01;89.74
13796;SHT30;40911;51.552;9.874;2023-08-06T14:13:02;18.01;90.53
13796;SHT30;40911;51.552;9.874;2023-08-06T14:15:24;18.29;91.62
13796;SHT30;40911;51.552;9.874;2023-08-06T14:17:46;18.11;90.62
13796;SHT30;40911;51.552;9.874;2023-08-06T14:20:08;18.29;90.27
13796;SHT30;40911;51.552;9.874;2023-08-06T14:22:33;18.11;90.10
13796;SHT30;40911;51.552;9.874;2023-08-06T14:24:55;18.33;88.01
13796;SHT30;40911;51.552;9.874;2023-08-06T14:27:16;18.36;87.78
13796;SHT30;40911;51.552;9.874;2023-08-06T14:29:38;18.24;88.79
13796;SHT30;40911;51.552;9.874;2023-08-06T14:32:00;18.33;88.10
13796;SHT30;40911;51.552;9.874;2023-08-06T14:34:21;18.14;89.80
13796;SHT30;40911;51.552;9.874;2023-08-06T14:36:43;18.02;90.41
13796;SHT30;40911;51.552;9.874;2023-08-06T14:39:06;17.54;90.74
13796;SHT30;40911;51.552;9.874;2023-08-06T14:41:28;16.93;92.00
13796;SHT30;40911;51.552;9.874;2023-08-06T14:43:49;17.80;91.11
13796;SHT30;40911;51.552;9.874;2023-08-06T14:46:11;16.80;91.23
13796;SHT30;40911;51.552;9.874;2023-08-06T14:48:32;16.67;91.95
13796;SHT30;40911;51.552;9.874;2023-08-06T14:50:54;16.73;92.09
13796;SHT30;40911;51.552;9.874;2023-08-06T14:53:15;16.43;91.89
13796;SHT30;40911;51.552;9.874;2023-08-06T14:55:38;16.32;90.88
13796;SHT30;40911;51.552;9.874;2023-08-06T14:58:02;16.40;90.77
13796;SHT30;40911;51.552;9.874;2023-08-06T15:00:24;16.25;91.51